WetterOnline ( http://www.wetteronline.de )

Wetter aktuell Ellscheid

Aktuelles Wetter: Nürburg-Barweiler (488m)

6-stündlich | Neueste Meldungen
Ortszeit Temperatur Wetter
Mi, 20.06. 2:00 15.9° C bedeckt
Di, 19.06. 20:00 19.3° C bedeckt
Di, 19.06. 14:00 18.2° C bedeckt
Di, 19.06. 8:00 13.8° C bedeckt
Di, 19.06. 2:00 15.2° C bewölkt
Mo, 18.06. 20:00 18.4° C bewölkt
Mo, 18.06. 14:00 18.5° C bedeckt
Mo, 18.06. 8:00 13.0° C bedeckt
Ortszeit Temperatur Wetter
Mi, 20.06. 5:30 15.1° C fast wolkenlos
Mi, 20.06. 5:20 15.1° C fast wolkenlos
Mi, 20.06. 5:10 15.2° C leicht bewölkt
Mi, 20.06. 5:00 15.5° C bewölkt
Mi, 20.06. 4:50 15.5° C bedeckt
Mi, 20.06. 4:40 15.3° C bedeckt
Mi, 20.06. 4:30 15.4° C bedeckt
Mi, 20.06. 4:00 15.3° C bedeckt
Mi, 20.06. 3:30 15.2° C bedeckt
Mi, 20.06. 3:00 16.0° C bedeckt
Mi, 20.06. 2:30 15.9° C bedeckt
Ortszeit Relative Feuchte Sichtweite
Mi, 20.06. 2:00 93% 20 km
Di, 19.06. 20:00 72% 60 km
Di, 19.06. 14:00 74% 30 km
Di, 19.06. 8:00 89% 10 km
Di, 19.06. 2:00 87% 24 km
Mo, 18.06. 20:00 72% 27 km
Mo, 18.06. 14:00 63% 30 km
Mo, 18.06. 8:00 80% 29 km
Ortszeit Relative Feuchte Sichtweite
Mi, 20.06. 5:30 94% 11 km
Mi, 20.06. 5:20 94% -
Mi, 20.06. 5:10 94% -
Mi, 20.06. 5:00 93% 21 km
Mi, 20.06. 4:50 93% -
Mi, 20.06. 4:40 94% -
Mi, 20.06. 4:30 93% 16 km
Mi, 20.06. 4:00 94% 14 km
Mi, 20.06. 3:30 91% 16 km
Mi, 20.06. 3:00 91% 21 km
Mi, 20.06. 2:30 91% 25 km
Ortszeit Niederschlagsmenge Niederschlagsart
Mi, 20.06. 2:00 0.0 l/m2 in 6 Std. -
Di, 19.06. 20:00 0.1 l/m2 in 12 Std. Regen
Di, 19.06. 14:00 0.1 l/m2 in 6 Std. Regen
Di, 19.06. 8:00 0.0 l/m2 in 12 Std. -
Di, 19.06. 2:00 0.0 l/m2 in 6 Std. -
Mo, 18.06. 20:00 0.1 l/m2 in 12 Std. Sprühregen
Mo, 18.06. 14:00 0.0 l/m2 in 6 Std. -
Mo, 18.06. 8:00 0.0 l/m2 in 12 Std. -
Ortszeit Niederschlagsmenge Niederschlagsart
Mi, 20.06. 5:30 0.0 l/m2 in 1 Std. -
Mi, 20.06. 5:20 keine Meldung -
Mi, 20.06. 5:10 keine Meldung -
Mi, 20.06. 5:00 0.0 l/m2 in 1 Std. -
Mi, 20.06. 4:50 keine Meldung -
Mi, 20.06. 4:40 keine Meldung -
Mi, 20.06. 4:30 0.0 l/m2 in 1 Std. -
Mi, 20.06. 4:00 0.0 l/m2 in 1 Std. -
Mi, 20.06. 3:30 0.0 l/m2 in 1 Std. -
Mi, 20.06. 3:00 0.0 l/m2 in 1 Std. -
Mi, 20.06. 2:30 0.0 l/m2 in 1 Std. -
Ortszeit Stärke Spitze Richtung
km/h Bft. km/h Grad Sektor
Mi, 20.06. 2:00 0 0 14 - -
Di, 19.06. 20:00 4 1 22 320° NW
Di, 19.06. 14:00 7 2 14 220° SW
Di, 19.06. 8:00 7 2 24 230° SW
Di, 19.06. 2:00 13 3 22 260° W
Mo, 18.06. 20:00 11 2 28 230° SW
Mo, 18.06. 14:00 14 3 32 230° SW
Mo, 18.06. 8:00 7 2 14 230° SW
Ortszeit Stärke Spitze Richtung
km/h Bft. km/h Grad Sektor
Mi, 20.06. 5:30 6 1 9 150° SO
Mi, 20.06. 5:20 6 1 - 150° SO
Mi, 20.06. 5:10 6 1 - 160° S
Mi, 20.06. 5:00 0 0 7 - -
Mi, 20.06. 4:50 2 1 - 220° SW
Mi, 20.06. 4:40 2 1 - 310° NW
Mi, 20.06. 4:30 4 1 7 180° S
Mi, 20.06. 4:00 4 1 7 180° S
Mi, 20.06. 3:30 2 1 6 250° W
Mi, 20.06. 3:00 4 1 7 160° S
Mi, 20.06. 2:30 4 1 7 180° S
Ortszeit Untergrenze Bedeckung Gattung
total tief tief mittel hoch
Mi, 20.06. 2:00 870 m 8/8 8/8 - - -
Di, 19.06. 20:00 1080 m 8/8 8/8 - - -
Di, 19.06. 14:00 420 m 8/8 8/8 - - -
Di, 19.06. 8:00 240 m 8/8 8/8 - - -
Di, 19.06. 2:00 510 m 7/8 7/8 - - -
Mo, 18.06. 20:00 810 m 7/8 7/8 - - -
Mo, 18.06. 14:00 810 m 8/8 8/8 - - -
Mo, 18.06. 8:00 900 m 8/8 8/8 - - -
Ortszeit Bedeckungsgrad in Achtel und Wolkenuntergrenze
Mi, 20.06. 5:30 1(810m)
Mi, 20.06. 5:20 1(810m)
Mi, 20.06. 5:10 3(810m)
Mi, 20.06. 5:00 8(810m) 7(960m) 7(1290m)
Mi, 20.06. 4:50 8(810m)
Mi, 20.06. 4:40 8(810m)
Mi, 20.06. 4:30 8(810m)
Mi, 20.06. 4:00 8(810m)
Mi, 20.06. 3:30 8(810m)
Mi, 20.06. 3:00 8(840m)
Mi, 20.06. 2:30 8(840m)
Ortszeit Luftdruck NN (hPa) Tendenz (hPa in 3 Std.)
Mi, 20.06. 2:00 1025 - 0,2
Di, 19.06. 20:00 1024 - 0,3
Di, 19.06. 14:00 1024 + 0,4
Di, 19.06. 8:00 1024 + 1,1
Di, 19.06. 2:00 1023 + 0,7
Mo, 18.06. 20:00 1021 - 0,5
Mo, 18.06. 14:00 1021 + 0,1
Mo, 18.06. 8:00 1022 + 0,5
Ortszeit Luftdruck NN (hPa) Tendenz (hPa in 3 Std.)
Mi, 20.06. 5:30 1024 - 0,9
Mi, 20.06. 5:20 1024 keine Meldung
Mi, 20.06. 5:10 1024 keine Meldung
Mi, 20.06. 5:00 1024 - 0,9
Mi, 20.06. 4:50 1024 keine Meldung
Mi, 20.06. 4:40 1024 keine Meldung
Mi, 20.06. 4:30 1024 - 0,9
Mi, 20.06. 4:00 1024 - 0,8
Mi, 20.06. 3:30 1024 - 0,5
Mi, 20.06. 3:00 1024 - 0,6
Mi, 20.06. 2:30 1024 - 0,4
Ortszeit Schneehöhe (cm)
Mi, 20.06. 2:00 -
Di, 19.06. 20:00 -
Di, 19.06. 14:00 -
Di, 19.06. 8:00 -
Di, 19.06. 2:00 -
Mo, 18.06. 20:00 -
Mo, 18.06. 14:00 -
Mo, 18.06. 8:00 -
Ortszeit Schneehöhe (cm)
Mi, 20.06. 5:30 -
Mi, 20.06. 5:20 -
Mi, 20.06. 5:10 -
Mi, 20.06. 5:00 -
Mi, 20.06. 4:50 -
Mi, 20.06. 4:40 -
Mi, 20.06. 4:30 -
Mi, 20.06. 4:00 -
Mi, 20.06. 3:30 -
Mi, 20.06. 3:00 -
Mi, 20.06. 2:30 -
Link zu dieser Seite / Seite empfehlen

Das Wetter in ...